Avery, Oklahoma
Current Conditions -  °F | °C
As of 2:35 PM on Thursday 20 Nov 2014 (Local Time) from KCUH Reporting Station
Clear Clear  
Wind Chill: 57°   Ceiling: Unl
Heat Index: 57°   Visibility: 10mi
Dew Point: 41°   Wind: 5mph
Humidity: 55%   Direction: 130°SE
Pressure: 30.03"   Gusts: NA
Location:  35.9968°N, 96.7376°W
Report Text: KCUH 202035Z AUTO 13004KT 10SM CLR 14/05 A3003 RMK AO2
Loading
Personal Weather Stations






























Interactive Weather Map New forecast layout! Learn more

10-Day Weather Forecast

Advertisements
Track Severe Weather on mobile